LGAD/PYR METAR and TAF weather

Enter ICAO airport designator
Station Type Date Time Source
LGAD METAR 2020/10/20 16:20 UTC NOAA

LGAD 201620Z 36006KT 9999 FEW020 18/12 Q1021


Station Type Date Time Source
LGAD Decoded METAR 2020/10/20 16:20 UTC NOAA

Andravida Airport , Greece (LGAD) 37-55N 021-17E 14M
Oct 20, 2020 - 12:20 PM EDT / 2020.10.20 1620 UTC
Wind: from the N (360 degrees) at 7 MPH (6 KT):0
Visibility: greater than 7 mile(s):0
Sky conditions: mostly clear
Temperature: 64 F (18 C)
Dew Point: 53 F (12 C)
Relative Humidity: 67%
Pressure (altimeter): 30.15 in. Hg (1021 hPa)
ob: LGAD 201620Z 36006KT 9999 FEW020 18/12 Q1021
cycle: 16

Station Type Date Time Source
LGAD TAF 2020/03/18 09:39 UTC NOAA

TAF TAF LGAD 180800Z 1809/1821 30006KT 9999 FEW030
BECMG 1816/1818 07010KT

Example: see airport list